Time;durP1;ratioP1;P1;durP2;ratioP2;P2;SDS_P1;SDS_P2;PMS_P1;PMS_P2;Temp;Humidity;BMP_temperature;BMP_pressure;BME280_temperature;BME280_humidity;BME280_pressure;Samples;Min_cycle;Max_cycle;Signal;HPM_P1;HPM_P2
2023/12/04 00:01:52;;;;;;;10.57;6.93;;;2.50;26.40;;;;;;5011778;28;20208;-56
2023/12/04 00:04:22;;;;;;;9.93;6.80;;;2.50;30.40;;;;;;5009195;28;20644;-56
2023/12/04 00:06:50;;;;;;;9.93;6.37;;;2.50;30.00;;;;;;5009365;28;20284;-55
2023/12/04 00:09:19;;;;;;;9.27;6.47;;;2.40;34.70;;;;;;5010918;28;20272;-52
2023/12/04 00:11:47;;;;;;;9.27;6.43;;;2.40;32.30;;;;;;5009661;28;20222;-54
2023/12/04 00:14:18;;;;;;;10.43;7.20;;;2.40;28.70;;;;;;5008795;28;20226;-56
2023/12/04 00:16:46;;;;;;;11.40;6.90;;;2.40;31.50;;;;;;5011202;28;20194;-54
2023/12/04 00:19:15;;;;;;;9.20;6.67;;;2.40;34.60;;;;;;5015733;28;20220;-54
2023/12/04 00:21:45;;;;;;;10.63;7.03;;;2.40;36.50;;;;;;5010902;28;20222;-56
2023/12/04 00:24:14;;;;;;;10.03;6.83;;;2.30;37.60;;;;;;5010357;28;20268;-54
2023/12/04 00:26:42;;;;;;;11.57;7.23;;;2.40;35.10;;;;;;5008700;28;20222;-55
2023/12/04 00:29:11;;;;;;;11.83;6.80;;;2.30;38.10;;;;;;5010621;28;20227;-56
2023/12/04 00:31:39;;;;;;;11.20;6.77;;;2.30;37.50;;;;;;5010743;28;20220;-53
2023/12/04 00:34:07;;;;;;;9.63;6.33;;;2.30;31.30;;;;;;5002915;28;20225;-56
2023/12/04 00:36:37;;;;;;;10.80;6.87;;;2.30;31.40;;;;;;5009491;28;20218;-52
2023/12/04 00:39:08;;;;;;;9.03;6.27;;;2.30;36.40;;;;;;5010955;28;20228;-52
2023/12/04 00:41:36;;;;;;;11.40;7.17;;;2.30;34.80;;;;;;5010419;28;20223;-54
2023/12/04 00:44:26;;;;;;;10.13;6.67;;;2.30;31.20;;;;;;5011015;28;20995;-54
2023/12/04 00:46:54;;;;;;;9.80;6.63;;;2.30;34.70;;;;;;5011702;28;20190;-54
2023/12/04 00:49:23;;;;;;;11.63;7.10;;;2.30;35.40;;;;;;5008764;28;20210;-55
2023/12/04 00:51:51;;;;;;;10.73;6.80;;;2.30;33.10;;;;;;5008441;28;20279;-53
2023/12/04 00:54:21;;;;;;;12.43;7.13;;;2.30;29.50;;;;;;5011754;28;20240;-54
2023/12/04 00:56:49;;;;;;;10.27;6.67;;;2.30;33.30;;;;;;5010813;28;20236;-55
2023/12/04 00:59:17;;;;;;;9.83;6.73;;;2.30;25.30;;;;;;5014044;28;20704;-53
2023/12/04 01:01:46;;;;;;;9.40;6.10;;;2.30;34.00;;;;;;5012951;28;20198;-56
2023/12/04 01:04:14;;;;;;;11.77;7.33;;;2.30;32.00;;;;;;5011541;28;20261;-56
2023/12/04 01:06:42;;;;;;;8.53;6.80;;;2.30;33.80;;;;;;5010714;28;20233;-54
2023/12/04 01:09:11;;;;;;;10.37;6.67;;;2.30;29.90;;;;;;5012064;28;20325;-55
2023/12/04 01:11:40;;;;;;;10.77;7.17;;;2.30;31.90;;;;;;5012245;28;20218;-54
2023/12/04 01:14:08;;;;;;;9.30;5.73;;;2.30;26.20;;;;;;5011340;28;20240;-54
2023/12/04 01:16:36;;;;;;;9.53;6.53;;;2.30;22.90;;;;;;5013359;28;20201;-53
2023/12/04 01:19:05;;;;;;;14.00;6.43;;;2.40;20.80;;;;;;5011663;28;20225;-51
2023/12/04 01:21:33;;;;;;;10.30;6.37;;;2.40;23.90;;;;;;5011681;28;20217;-55
2023/12/04 01:24:02;;;;;;;11.30;6.73;;;2.40;20.60;;;;;;5011781;28;20689;-56
2023/12/04 01:26:31;;;;;;;9.53;6.57;;;2.40;20.40;;;;;;5005672;28;20226;-55
2023/12/04 01:29:01;;;;;;;10.37;6.63;;;2.40;24.30;;;;;;5013920;28;20286;-54
2023/12/04 01:31:29;;;;;;;9.87;6.20;;;2.40;24.40;;;;;;5010734;28;20244;-55
2023/12/04 01:33:58;;;;;;;10.83;6.77;;;2.30;27.80;;;;;;5008118;28;20221;-55
2023/12/04 01:36:27;;;;;;;10.97;6.77;;;2.30;24.50;;;;;;5012552;28;20720;-55
2023/12/04 01:38:55;;;;;;;7.93;6.17;;;2.30;32.00;;;;;;5014002;28;20237;-55
2023/12/04 01:41:23;;;;;;;10.70;6.77;;;2.20;33.40;;;;;;5011980;28;20229;-54
2023/12/04 01:43:51;;;;;;;10.23;6.33;;;2.20;29.80;;;;;;5013342;28;20668;-53
2023/12/04 01:46:21;;;;;;;13.83;6.77;;;2.20;28.80;;;;;;5012186;28;20557;-55
2023/12/04 01:48:50;;;;;;;9.33;6.43;;;2.20;27.40;;;;;;5010124;28;20233;-53
2023/12/04 01:51:20;;;;;;;8.13;6.37;;;2.30;30.80;;;;;;5011524;28;20241;-55
2023/12/04 01:53:48;;;;;;;10.50;6.43;;;2.20;28.60;;;;;;5011002;28;20580;-53
2023/12/04 01:56:18;;;;;;;10.77;6.43;;;2.20;30.00;;;;;;5010710;28;20676;-55
2023/12/04 01:58:47;;;;;;;8.77;6.23;;;2.20;32.40;;;;;;5008378;28;20667;-55
2023/12/04 02:01:16;;;;;;;9.17;6.33;;;2.20;38.20;;;;;;5010787;28;20224;-56
2023/12/04 02:03:46;;;;;;;10.33;6.30;;;2.20;32.70;;;;;;5011283;28;20221;-55
2023/12/04 02:06:14;;;;;;;8.27;6.07;;;2.30;23.50;;;;;;4994455;28;20222;-55
2023/12/04 02:08:42;;;;;;;9.30;5.97;;;2.30;24.80;;;;;;5012463;28;20222;-56
2023/12/04 02:11:11;;;;;;;11.30;6.80;;;2.30;24.10;;;;;;5010598;28;20228;-55
2023/12/04 02:13:39;;;;;;;7.97;5.70;;;2.40;20.40;;;;;;5010851;28;20194;-54
2023/12/04 02:16:10;;;;;;;8.20;5.60;;;2.40;18.90;;;;;;5007935;28;20225;-56
2023/12/04 02:18:39;;;;;;;7.73;5.93;;;2.40;19.20;;;;;;5010644;28;20300;-56
2023/12/04 02:21:09;;;;;;;11.00;6.40;;;2.40;19.20;;;;;;5004335;28;20249;-56
2023/12/04 02:23:38;;;;;;;9.40;5.63;;;2.40;25.10;;;;;;5006358;28;20214;-55
2023/12/04 02:26:14;;;;;;;8.17;5.90;;;2.40;19.40;;;;;;5011001;28;20198;-56
2023/12/04 02:28:46;;;;;;;8.27;5.67;;;2.50;13.10;;;;;;5009715;28;20292;-56
2023/12/04 02:31:20;;;;;;;8.83;5.60;;;2.50;11.90;;;;;;5011430;28;20249;-54
2023/12/04 02:33:51;;;;;;;8.23;5.70;;;2.50;14.30;;;;;;5010861;28;20221;-55
2023/12/04 02:36:21;;;;;;;7.50;5.33;;;2.50;18.30;;;;;;5010943;28;20268;-56
2023/12/04 02:38:50;;;;;;;7.47;5.70;;;2.50;9.30;;;;;;5008554;28;20218;-57
2023/12/04 02:41:20;;;;;;;6.57;5.03;;;2.50;11.10;;;;;;4991855;28;20221;-55
2023/12/04 02:43:48;;;;;;;7.53;5.40;;;2.60;5.40;;;;;;5007602;28;20222;-54
2023/12/04 02:46:17;;;;;;;7.93;5.30;;;2.60;3.30;;;;;;5012482;28;20205;-55
2023/12/04 02:48:45;;;;;;;7.60;5.40;;;2.60;1.00;;;;;;5011270;28;20700;-53
2023/12/04 02:51:14;;;;;;;9.27;6.13;;;2.60;1.00;;;;;;5010215;28;20284;-53
2023/12/04 02:53:42;;;;;;;6.77;5.00;;;2.60;4.70;;;;;;5011640;28;20245;-56
2023/12/04 02:56:11;;;;;;;7.57;5.70;;;2.60;5.80;;;;;;5013302;28;20221;-55
2023/12/04 02:58:41;;;;;;;8.80;5.83;;;2.50;7.90;;;;;;5011617;28;20218;-56
2023/12/04 03:01:09;;;;;;;9.63;6.07;;;2.50;7.70;;;;;;5011706;28;20698;-55
2023/12/04 03:03:37;;;;;;;8.23;5.67;;;2.50;4.80;;;;;;5007995;28;20274;-53
2023/12/04 03:06:07;;;;;;;7.83;5.83;;;2.40;10.30;;;;;;5009354;28;20696;-53
2023/12/04 03:08:35;;;;;;;8.73;6.10;;;2.40;8.00;;;;;;5007851;28;20229;-56
2023/12/04 03:11:04;;;;;;;10.87;5.30;;;2.50;9.60;;;;;;5012256;28;20190;-56
2023/12/04 03:13:33;;;;;;;8.93;5.53;;;2.40;8.30;;;;;;5009359;28;20204;-55
2023/12/04 03:16:02;;;;;;;9.90;5.53;;;2.50;1.00;;;;;;5010931;28;20229;-55
2023/12/04 03:18:31;;;;;;;7.27;5.50;;;2.60;1.00;;;;;;5010432;28;20214;-52
2023/12/04 03:20:59;;;;;;;9.47;5.53;;;2.60;1.00;;;;;;5009429;28;20232;-56
2023/12/04 03:23:27;;;;;;;6.63;5.63;;;2.70;1.00;;;;;;5008376;28;20221;-55
2023/12/04 03:25:56;;;;;;;7.73;5.93;;;2.70;1.00;;;;;;5008551;28;20195;-54
2023/12/04 03:28:24;;;;;;;7.97;5.43;;;2.70;1.00;;;;;;5010885;28;20671;-55
2023/12/04 03:30:52;;;;;;;6.50;4.97;;;2.70;1.00;;;;;;5010945;28;20221;-55
2023/12/04 03:33:25;;;;;;;5.70;4.90;;;2.70;1.00;;;;;;5010329;28;20214;-56
2023/12/04 03:35:53;;;;;;;5.70;5.07;;;2.80;1.00;;;;;;5009358;28;20272;-52
2023/12/04 03:38:21;;;;;;;6.33;5.30;;;2.80;1.00;;;;;;5008809;28;20559;-54
2023/12/04 03:40:49;;;;;;;7.00;5.00;;;2.80;1.00;;;;;;5010892;28;20202;-56
2023/12/04 03:43:18;;;;;;;6.60;4.97;;;2.90;1.00;;;;;;5003383;28;20276;-54
2023/12/04 03:45:49;;;;;;;6.73;5.33;;;2.90;1.00;;;;;;5000122;28;20236;-54
2023/12/04 03:48:18;;;;;;;5.77;4.80;;;2.90;1.00;;;;;;5003685;28;20225;-55
2023/12/04 03:50:48;;;;;;;6.37;5.10;;;3.00;1.00;;;;;;5003760;28;20228;-54
2023/12/04 03:53:16;;;;;;;7.40;5.00;;;2.90;1.00;;;;;;5009882;28;20225;-56
2023/12/04 03:55:44;;;;;;;8.17;5.47;;;2.90;1.00;;;;;;5008232;28;20285;-55
2023/12/04 03:58:12;;;;;;;9.30;5.07;;;2.90;1.00;;;;;;5008125;28;20279;-56
2023/12/04 04:00:43;;;;;;;7.03;5.03;;;2.90;1.00;;;;;;5009710;28;20260;-52
2023/12/04 04:03:11;;;;;;;6.13;5.43;;;2.90;99.90;;;;;;5010082;28;20895;-55
2023/12/04 04:05:40;;;;;;;6.73;5.17;;;2.80;99.90;;;;;;5005332;28;20256;-55
2023/12/04 04:08:09;;;;;;;7.10;5.37;;;2.80;99.90;;;;;;5010929;28;20221;-55
2023/12/04 04:10:38;;;;;;;7.10;5.40;;;2.80;99.90;;;;;;5011065;28;20751;-54
2023/12/04 04:13:06;;;;;;;5.40;4.80;;;2.90;99.90;;;;;;5005804;28;20232;-54
2023/12/04 04:15:34;;;;;;;6.60;5.10;;;2.80;99.90;;;;;;5011165;28;20221;-56
2023/12/04 04:18:06;;;;;;;6.60;5.10;;;2.80;99.90;;;;;;5009965;28;20226;-54
2023/12/04 04:20:34;;;;;;;6.43;5.00;;;2.80;99.90;;;;;;5012938;28;20241;-53
2023/12/04 04:23:02;;;;;;;7.03;5.10;;;2.80;99.90;;;;;;5012398;28;20201;-55
2023/12/04 04:25:32;;;;;;;7.20;5.40;;;2.80;99.90;;;;;;5015855;28;20194;-56
2023/12/04 04:28:00;;;;;;;8.17;5.47;;;2.80;99.90;;;;;;5013170;28;20626;-56
2023/12/04 04:30:28;;;;;;;5.90;4.67;;;2.80;99.90;;;;;;5014792;28;20255;-55
2023/12/04 04:32:56;;;;;;;5.53;5.00;;;2.80;99.90;;;;;;5010030;28;20222;-56
2023/12/04 04:35:25;;;;;;;7.93;5.00;;;2.80;99.90;;;;;;5013103;28;20222;-53
2023/12/04 04:37:53;;;;;;;7.73;4.80;;;2.70;99.90;;;;;;5010019;28;20661;-56
2023/12/04 04:40:21;;;;;;;7.20;5.37;;;2.80;99.90;;;;;;5014920;28;20668;-55
2023/12/04 04:42:51;;;;;;;6.23;5.07;;;2.80;99.90;;;;;;5011774;28;20269;-55
2023/12/04 04:45:19;;;;;;;5.37;4.70;;;2.80;99.90;;;;;;4994740;28;20266;-54
2023/12/04 04:47:47;;;;;;;6.20;4.70;;;2.80;99.90;;;;;;5015021;28;20301;-56
2023/12/04 04:50:16;;;;;;;5.37;4.67;;;2.90;99.90;;;;;;5013537;28;20261;-56
2023/12/04 04:52:44;;;;;;;5.40;4.53;;;2.90;99.90;;;;;;5012801;28;20218;-55
2023/12/04 04:55:12;;;;;;;5.73;5.00;;;2.90;99.90;;;;;;5014687;28;20685;-56
2023/12/04 04:58:02;;;;;;;4.70;4.30;;;2.90;99.90;;;;;;5013825;28;20226;-56
2023/12/04 05:00:30;;;;;;;5.27;4.67;;;2.90;99.90;;;;;;5010324;28;20221;-56
2023/12/04 05:02:59;;;;;;;5.50;4.70;;;2.90;99.90;;;;;;5012078;28;20628;-56
2023/12/04 05:05:27;;;;;;;6.00;4.93;;;2.90;99.90;;;;;;5013643;28;20221;-55
2023/12/04 05:07:56;;;;;;;4.83;4.33;;;2.80;99.90;;;;;;4996222;28;20194;-56
2023/12/04 05:10:24;;;;;;;5.23;4.70;;;2.80;99.90;;;;;;5011515;28;20229;-56
2023/12/04 05:12:52;;;;;;;4.77;4.33;;;2.90;99.90;;;;;;5011157;28;20221;-54
2023/12/04 05:15:22;;;;;;;5.33;4.50;;;2.80;99.90;;;;;;5013601;28;20222;-55
2023/12/04 05:17:51;;;;;;;8.47;4.70;;;2.80;99.90;;;;;;5012690;28;20222;-55
2023/12/04 05:20:19;;;;;;;5.23;4.67;;;2.80;99.90;;;;;;5011767;28;20214;-56
2023/12/04 05:22:48;;;;;;;6.57;4.80;;;2.80;99.90;;;;;;5013571;28;20201;-55
2023/12/04 05:25:36;;;;;;;5.47;4.57;;;2.90;99.90;;;;;;5012184;28;20225;-55
2023/12/04 05:28:15;;;;;;;4.80;4.33;;;2.90;99.90;;;;;;5010805;28;20217;-52
2023/12/04 05:30:45;;;;;;;6.57;5.20;;;2.80;1.00;;;;;;5011447;28;20218;-55
2023/12/04 05:33:13;;;;;;;5.53;4.80;;;2.80;1.00;;;;;;5006185;28;20306;-53
2023/12/04 05:35:41;;;;;;;9.17;4.87;;;2.70;1.00;;;;;;5010416;28;20218;-56
2023/12/04 05:38:10;;;;;;;7.30;5.00;;;2.70;1.00;;;;;;4994209;28;20222;-54
2023/12/04 05:40:38;;;;;;;7.87;5.37;;;2.60;1.00;;;;;;5012429;28;20199;-55
2023/12/04 05:43:06;;;;;;;6.33;4.93;;;2.60;1.00;;;;;;5013098;28;20301;-51
2023/12/04 05:45:34;;;;;;;5.60;5.10;;;2.60;1.00;;;;;;5013406;28;20219;-55
2023/12/04 05:48:04;;;;;;;6.20;5.07;;;2.60;1.00;;;;;;5011785;28;20276;-55
2023/12/04 05:50:32;;;;;;;6.43;5.03;;;2.60;99.90;;;;;;5009763;28;20224;-54
2023/12/04 05:53:01;;;;;;;7.50;4.57;;;2.70;99.90;;;;;;5009613;28;20201;-56
2023/12/04 05:55:29;;;;;;;6.60;4.87;;;2.70;99.90;;;;;;5010056;28;20198;-54
2023/12/04 05:57:59;;;;;;;5.77;4.90;;;2.70;99.90;;;;;;5010988;28;20249;-53
2023/12/04 06:00:28;;;;;;;5.73;4.83;;;2.70;99.90;;;;;;5010427;28;20234;-53
2023/12/04 06:02:56;;;;;;;6.10;4.83;;;2.70;99.90;;;;;;5011618;28;20217;-55
2023/12/04 06:05:27;;;;;;;7.10;4.70;;;2.80;99.90;;;;;;5013026;28;20646;-52
2023/12/04 06:07:57;;;;;;;5.57;4.97;;;2.80;99.90;;;;;;5011494;28;20194;-53
2023/12/04 06:10:26;;;;;;;7.30;4.73;;;2.70;99.90;;;;;;5013461;28;20210;-52
2023/12/04 06:12:54;;;;;;;6.13;4.73;;;2.70;99.90;;;;;;5012817;28;20222;-53
2023/12/04 06:15:22;;;;;;;5.33;4.83;;;2.70;99.90;;;;;;5007526;28;20254;-54
2023/12/04 06:17:51;;;;;;;5.57;4.40;;;2.70;99.90;;;;;;5010412;28;20221;-54
2023/12/04 06:20:22;;;;;;;5.07;4.57;;;2.70;99.90;;;;;;5012645;28;20662;-54
2023/12/04 06:22:52;;;;;;;8.77;5.40;;;2.70;99.90;;;;;;5012148;28;20198;-55
2023/12/04 06:25:21;;;;;;;4.87;4.40;;;2.70;99.90;;;;;;5013397;28;20526;-54
2023/12/04 06:27:51;;;;;;;5.93;4.73;;;2.70;99.90;;;;;;5013330;28;20568;-55
2023/12/04 06:30:20;;;;;;;4.73;4.30;;;2.70;99.90;;;;;;5009035;28;20591;-56
2023/12/04 06:32:49;;;;;;;5.90;4.60;;;2.70;99.90;;;;;;5012908;28;20580;-56
2023/12/04 06:35:18;;;;;;;6.23;4.50;;;2.80;99.90;;;;;;5011999;28;20233;-54
2023/12/04 06:37:52;;;;;;;4.60;4.20;;;2.90;99.90;;;;;;5008366;28;20202;-54
2023/12/04 06:40:21;;;;;;;4.63;4.10;;;2.90;99.90;;;;;;5011454;28;20224;-54
2023/12/04 06:42:50;;;;;;;4.93;4.40;;;3.00;99.90;;;;;;5011988;28;20734;-54
2023/12/04 06:45:19;;;;;;;4.60;4.20;;;3.00;99.90;;;;;;5009788;28;20233;-54
2023/12/04 06:47:51;;;;;;;4.43;4.00;;;3.00;99.90;;;;;;5011257;28;20218;-53
2023/12/04 06:50:19;;;;;;;4.73;4.27;;;3.10;99.90;;;;;;5010269;28;20225;-55
2023/12/04 06:52:47;;;;;;;4.70;4.20;;;3.10;99.90;;;;;;5012031;28;20656;-55
2023/12/04 06:55:17;;;;;;;4.70;4.20;;;3.20;99.90;;;;;;5011660;28;20225;-53
2023/12/04 06:57:45;;;;;;;7.27;4.43;;;3.20;99.90;;;;;;5012953;28;20627;-52
2023/12/04 07:00:15;;;;;;;4.80;4.40;;;3.20;99.90;;;;;;5018258;28;20304;-54
2023/12/04 07:02:51;;;;;;;4.87;4.33;;;3.30;99.90;;;;;;5004921;28;20230;-52
2023/12/04 07:05:21;;;;;;;4.83;4.43;;;3.30;99.90;;;;;;5006459;28;20248;-53
2023/12/04 07:07:50;;;;;;;5.03;4.47;;;3.30;99.90;;;;;;5011869;28;20214;-56
2023/12/04 07:10:19;;;;;;;5.00;4.50;;;3.40;99.90;;;;;;5011509;28;20591;-55
2023/12/04 07:13:06;;;;;;;5.73;4.10;;;3.40;99.90;;;;;;5012897;28;20221;-54
2023/12/04 07:15:35;;;;;;;4.90;4.37;;;3.40;99.90;;;;;;5012343;28;20257;-51
2023/12/04 07:18:03;;;;;;;4.97;4.03;;;3.40;99.90;;;;;;5014878;28;20221;-56
2023/12/04 07:20:32;;;;;;;5.20;4.70;;;3.40;99.90;;;;;;5011649;28;20221;-55
2023/12/04 07:23:00;;;;;;;6.20;5.20;;;3.40;99.90;;;;;;5003128;28;20194;-55
2023/12/04 07:25:29;;;;;;;5.03;4.47;;;3.40;99.90;;;;;;5011085;28;20208;-55
2023/12/04 07:27:58;;;;;;;8.93;5.07;;;3.40;99.90;;;;;;5010618;28;20247;-55
2023/12/04 07:30:27;;;;;;;5.30;4.43;;;3.40;99.90;;;;;;5007816;28;20252;-55
2023/12/04 07:32:55;;;;;;;7.90;4.50;;;3.40;99.90;;;;;;5007766;28;20221;-55
2023/12/04 07:35:23;;;;;;;6.10;5.00;;;3.40;99.90;;;;;;5006972;28;20330;-55
2023/12/04 07:37:51;;;;;;;6.53;4.80;;;3.30;99.90;;;;;;5006199;28;20203;-52
2023/12/04 07:40:22;;;;;;;6.80;4.80;;;3.40;99.90;;;;;;5008161;28;20198;-56
2023/12/04 07:42:52;;;;;;;6.87;4.63;;;3.30;99.90;;;;;;5008383;28;20221;-56
2023/12/04 07:45:21;;;;;;;7.23;5.07;;;3.30;99.90;;;;;;5009338;28;20260;-56
2023/12/04 07:47:50;;;;;;;7.57;5.57;;;3.30;99.90;;;;;;5008929;28;20210;-55
2023/12/04 07:50:18;;;;;;;6.97;5.10;;;3.30;99.90;;;;;;5008923;28;20222;-56
2023/12/04 07:52:46;;;;;;;9.37;5.80;;;3.30;99.90;;;;;;5009996;28;20212;-54
2023/12/04 07:55:15;;;;;;;9.53;5.63;;;3.30;99.90;;;;;;5004003;28;20222;-55
2023/12/04 07:57:43;;;;;;;6.30;4.97;;;3.30;99.90;;;;;;5006907;28;20280;-52
2023/12/04 08:00:14;;;;;;;5.73;5.00;;;3.30;99.90;;;;;;5010685;28;20218;-52
2023/12/04 08:02:44;;;;;;;5.57;4.97;;;3.30;99.90;;;;;;5008901;28;20249;-55
2023/12/04 08:05:16;;;;;;;7.03;5.60;;;3.30;99.90;;;;;;5010440;28;20217;-55
2023/12/04 08:07:44;;;;;;;6.07;5.20;;;3.30;99.90;;;;;;5009589;28;20194;-54
2023/12/04 08:10:13;;;;;;;6.77;5.13;;;3.30;99.90;;;;;;5011896;28;20214;-52
2023/12/04 08:12:41;;;;;;;8.60;5.27;;;3.40;99.90;;;;;;5011483;28;20234;-53
2023/12/04 08:15:10;;;;;;;6.00;5.40;;;3.30;99.90;;;;;;5010076;28;20230;-51
2023/12/04 08:17:41;;;;;;;7.37;5.37;;;3.40;99.90;;;;;;5010831;28;20225;-54
2023/12/04 08:20:13;;;;;;;6.27;5.27;;;3.40;99.90;;;;;;5012407;28;20577;-53
2023/12/04 08:22:51;;;;;;;6.47;5.13;;;3.40;99.90;;;;;;5010010;28;20192;-51
2023/12/04 08:25:19;;;;;;;7.73;5.67;;;3.40;99.90;;;;;;5010764;28;20205;-55
2023/12/04 08:27:51;;;;;;;6.57;5.23;;;3.40;99.90;;;;;;4992349;28;20230;-53
2023/12/04 08:30:20;;;;;;;8.17;5.27;;;3.40;99.90;;;;;;5005151;28;20703;-54
2023/12/04 08:32:49;;;;;;;7.20;5.40;;;3.40;99.90;;;;;;5009128;28;20232;-52
2023/12/04 08:35:17;;;;;;;9.50;6.03;;;3.40;99.90;;;;;;5007730;28;20587;-53
2023/12/04 08:37:46;;;;;;;6.17;5.47;;;3.40;99.90;;;;;;5005808;28;20211;-54
2023/12/04 08:40:14;;;;;;;9.63;5.53;;;3.30;99.90;;;;;;5009740;28;20218;-55
2023/12/04 08:42:44;;;;;;;8.60;5.50;;;3.30;99.90;;;;;;5011501;28;20218;-52
2023/12/04 08:45:13;;;;;;;8.57;5.37;;;3.30;99.90;;;;;;5010052;28;20226;-54
2023/12/04 08:47:44;;;;;;;7.17;5.23;;;3.30;99.90;;;;;;5010526;28;20268;-55
2023/12/04 08:50:14;;;;;;;6.93;5.50;;;3.30;99.90;;;;;;5009406;28;20222;-55
2023/12/04 08:52:42;;;;;;;9.40;6.20;;;3.30;99.90;;;;;;5011806;28;20222;-55
2023/12/04 08:55:11;;;;;;;7.33;5.83;;;3.30;99.90;;;;;;5009769;28;20230;-54
2023/12/04 08:57:40;;;;;;;7.17;5.83;;;3.40;99.90;;;;;;5009418;28;20233;-52
2023/12/04 09:00:09;;;;;;;7.70;5.70;;;3.30;99.90;;;;;;5008227;28;20246;-54
2023/12/04 09:02:38;;;;;;;9.07;5.70;;;3.30;99.90;;;;;;5012215;28;20233;-52
2023/12/04 09:05:18;;;;;;;7.53;5.97;;;3.40;99.90;;;;;;5013381;28;20245;-54
2023/12/04 09:07:46;;;;;;;8.13;6.03;;;3.40;99.90;;;;;;5014581;28;20194;-52
2023/12/04 09:10:17;;;;;;;7.63;5.87;;;3.30;99.90;;;;;;5015309;28;20214;-54
2023/12/04 09:13:06;;;;;;;10.00;6.47;;;3.30;99.90;;;;;;4996047;28;20221;-54
2023/12/04 09:15:34;;;;;;;8.67;6.37;;;3.30;99.90;;;;;;5015170;28;20569;-55
2023/12/04 09:18:02;;;;;;;7.60;6.30;;;3.30;99.90;;;;;;5012489;28;20308;-56
2023/12/04 09:20:32;;;;;;;9.03;6.07;;;3.20;99.90;;;;;;4996044;28;20245;-56
2023/12/04 09:23:00;;;;;;;9.73;6.53;;;3.20;99.90;;;;;;5009296;28;20700;-56
2023/12/04 09:25:36;;;;;;;10.20;6.03;;;3.10;99.90;;;;;;4998298;28;20201;-55
2023/12/04 09:28:05;;;;;;;8.73;6.80;;;3.10;99.90;;;;;;4997129;28;20229;-56
2023/12/04 09:30:34;;;;;;;13.40;7.03;;;3.00;99.90;;;;;;5014493;28;20218;-55
2023/12/04 09:33:03;;;;;;;10.20;6.40;;;3.00;99.90;;;;;;5005370;28;20232;-55
2023/12/04 09:35:33;;;;;;;11.37;6.27;;;2.90;99.90;;;;;;5012365;28;20228;-54
2023/12/04 09:38:20;;;;;;;8.37;6.50;;;2.90;99.90;;;;;;4993925;28;20194;-53
2023/12/04 09:40:49;;;;;;;8.70;6.80;;;2.80;99.90;;;;;;5013056;28;20186;-54
2023/12/04 09:43:17;;;;;;;10.30;6.30;;;2.90;99.90;;;;;;5013399;28;20198;-56
2023/12/04 09:45:46;;;;;;;9.60;6.83;;;2.80;99.90;;;;;;5011516;28;20692;-56
2023/12/04 09:48:14;;;;;;;9.57;6.20;;;2.80;99.90;;;;;;5010296;28;20214;-54
2023/12/04 09:50:45;;;;;;;12.70;6.97;;;2.80;99.90;;;;;;5011207;28;20295;-56
2023/12/04 09:53:17;;;;;;;8.90;6.57;;;2.80;99.90;;;;;;5009558;28;20237;-54
2023/12/04 09:55:48;;;;;;;9.67;6.60;;;2.80;99.90;;;;;;5013211;28;20197;-55
2023/12/04 09:58:19;;;;;;;10.53;6.63;;;2.70;99.90;;;;;;5012517;28;20770;-54
2023/12/04 10:00:47;;;;;;;10.60;6.80;;;2.70;99.90;;;;;;5013502;28;20226;-53
2023/12/04 10:03:17;;;;;;;13.00;7.53;;;2.60;99.90;;;;;;5011791;28;20225;-54
2023/12/04 10:05:48;;;;;;;8.47;6.87;;;2.60;99.90;;;;;;5009115;28;20632;-56
2023/12/04 10:08:16;;;;;;;9.50;7.40;;;2.50;99.90;;;;;;5011811;28;20222;-54
2023/12/04 10:10:45;;;;;;;10.67;7.37;;;2.50;99.90;;;;;;5014262;28;20281;-53
2023/12/04 10:13:13;;;;;;;11.13;7.07;;;2.50;99.90;;;;;;5012113;28;20237;-51
2023/12/04 10:16:02;;;;;;;12.37;7.30;;;2.50;99.90;;;;;;5008071;28;20233;-52
2023/12/04 10:18:32;;;;;;;12.03;7.53;;;2.60;99.90;;;;;;5010587;28;20226;-54
2023/12/04 10:21:03;;;;;;;12.63;7.70;;;2.50;99.90;;;;;;4992116;28;20642;-55
2023/12/04 10:23:40;;;;;;;9.53;7.53;;;2.50;99.90;;;;;;4990967;28;20214;-55
2023/12/04 10:26:09;;;;;;;12.23;7.80;;;2.50;99.90;;;;;;5011881;28;20222;-52
2023/12/04 10:28:40;;;;;;;12.40;7.17;;;2.50;99.90;;;;;;5012121;28;20191;-54
2023/12/04 10:31:09;;;;;;;11.97;8.07;;;2.50;99.90;;;;;;5008924;28;20655;-54
2023/12/04 10:33:37;;;;;;;13.43;7.43;;;2.60;99.90;;;;;;5010786;28;20309;-52
2023/12/04 10:36:12;;;;;;;10.87;7.20;;;2.50;99.90;;;;;;5009575;28;20233;-50
2023/12/04 10:38:41;;;;;;;8.60;6.90;;;2.60;99.90;;;;;;5007591;28;20847;-52
2023/12/04 10:41:15;;;;;;;12.73;7.90;;;2.60;99.90;;;;;;5011246;28;20234;-53
2023/12/04 10:43:49;;;;;;;11.13;7.83;;;2.70;99.90;;;;;;5011411;28;20544;-52
2023/12/04 10:46:29;;;;;;;13.53;7.90;;;2.70;99.90;;;;;;5011677;28;20228;-55
2023/12/04 10:48:58;;;;;;;11.07;7.50;;;2.70;99.90;;;;;;5011270;28;20221;-54
2023/12/04 10:51:31;;;;;;;10.33;7.40;;;2.70;99.90;;;;;;5004453;28;20226;-53
2023/12/04 10:54:00;;;;;;;10.80;7.57;;;2.60;99.90;;;;;;5011643;28;20229;-54
2023/12/04 10:56:37;;;;;;;10.77;7.77;;;2.60;99.90;;;;;;5012555;28;20229;-55
2023/12/04 10:59:11;;;;;;;11.93;7.97;;;2.60;99.90;;;;;;5011316;28;20190;-52
2023/12/04 11:01:43;;;;;;;11.83;8.30;;;2.60;99.90;;;;;;4992696;28;20186;-55
2023/12/04 11:04:17;;;;;;;10.50;7.63;;;2.70;99.90;;;;;;4992479;28;20214;-54
2023/12/04 11:06:53;;;;;;;10.77;7.93;;;2.70;99.90;;;;;;5011953;28;20213;-54
2023/12/04 11:09:26;;;;;;;11.63;7.57;;;2.70;99.90;;;;;;5010860;28;20217;-53
2023/12/04 11:11:58;;;;;;;10.77;7.47;;;2.70;99.90;;;;;;5011436;28;20225;-55
2023/12/04 11:14:35;;;;;;;9.57;6.97;;;2.80;99.90;;;;;;5007114;28;20363;-53
2023/12/04 11:17:11;;;;;;;13.00;7.80;;;2.80;99.90;;;;;;4992004;28;20194;-55
2023/12/04 11:19:49;;;;;;;16.07;7.17;;;2.80;99.90;;;;;;5012900;28;20656;-53
2023/12/04 11:22:22;;;;;;;9.50;6.93;;;2.80;99.90;;;;;;5010131;28;20217;-55
2023/12/04 11:24:50;;;;;;;8.33;6.80;;;2.90;99.90;;;;;;5010455;28;20222;-56
2023/12/04 11:27:20;;;;;;;8.27;6.70;;;3.00;99.90;;;;;;5009206;28;20226;-54
2023/12/04 11:29:50;;;;;;;9.03;6.93;;;3.00;99.90;;;;;;5009003;28;20213;-53
2023/12/04 11:32:19;;;;;;;8.30;6.77;;;3.00;99.90;;;;;;5009968;28;20228;-54
2023/12/04 11:34:51;;;;;;;9.90;6.23;;;3.00;99.90;;;;;;5009840;28;20324;-55
2023/12/04 11:37:23;;;;;;;8.80;6.73;;;3.10;99.90;;;;;;5008900;28;20542;-54
2023/12/04 11:39:52;;;;;;;10.07;6.73;;;3.10;99.90;;;;;;5011123;28;20253;-54
2023/12/04 11:42:21;;;;;;;8.70;6.70;;;3.10;99.90;;;;;;5011644;28;20692;-55
2023/12/04 11:44:50;;;;;;;8.20;6.77;;;3.10;99.90;;;;;;5008904;28;20344;-56
2023/12/04 11:47:19;;;;;;;7.03;6.00;;;3.20;99.90;;;;;;5007737;28;20708;-54
2023/12/04 11:49:47;;;;;;;7.40;6.40;;;3.20;99.90;;;;;;5011139;28;21084;-54
2023/12/04 11:52:15;;;;;;;6.60;5.90;;;3.20;99.90;;;;;;5008998;28;20748;-55
2023/12/04 11:55:04;;;;;;;8.87;7.23;;;3.30;99.90;;;;;;5009197;28;20249;-54
2023/12/04 11:57:34;;;;;;;8.43;5.80;;;3.30;99.90;;;;;;5007922;28;20233;-55
2023/12/04 12:00:11;;;;;;;9.27;6.53;;;3.30;99.90;;;;;;5010949;28;20218;-56
2023/12/04 12:02:42;;;;;;;11.77;6.10;;;3.30;99.90;;;;;;5011265;28;20213;-55
2023/12/04 12:05:33;;;;;;;6.77;5.83;;;3.40;99.90;;;;;;5006647;28;20666;-56
2023/12/04 12:08:05;;;;;;;7.70;6.30;;;3.40;99.90;;;;;;5006797;28;20528;-55
2023/12/04 12:10:35;;;;;;;8.30;6.43;;;3.40;99.90;;;;;;5009202;28;20217;-55
2023/12/04 12:13:04;;;;;;;9.13;6.60;;;3.40;99.90;;;;;;5007627;28;20232;-54
2023/12/04 12:15:33;;;;;;;8.00;6.70;;;3.40;99.90;;;;;;5008523;28;20221;-55
2023/12/04 12:18:04;;;;;;;6.87;6.17;;;3.40;99.90;;;;;;5009914;28;20324;-56
2023/12/04 12:20:33;;;;;;;10.00;6.03;;;3.40;99.90;;;;;;5007626;28;20309;-55
2023/12/04 12:23:01;;;;;;;7.37;6.33;;;3.40;99.90;;;;;;5009138;28;20791;-55
2023/12/04 12:25:30;;;;;;;10.03;6.47;;;3.50;99.90;;;;;;5010260;28;20204;-54
2023/12/04 12:28:03;;;;;;;8.53;6.20;;;3.50;99.90;;;;;;5005708;28;20228;-56
2023/12/04 12:30:33;;;;;;;8.67;6.33;;;3.50;99.90;;;;;;5007752;28;20245;-56
2023/12/04 12:33:01;;;;;;;8.23;6.77;;;3.50;99.90;;;;;;5001769;28;20668;-54
2023/12/04 12:35:30;;;;;;;9.00;6.70;;;3.50;99.90;;;;;;5010007;28;20308;-56
2023/12/04 12:38:00;;;;;;;8.93;6.30;;;3.50;99.90;;;;;;5009695;28;20196;-56
2023/12/04 12:40:29;;;;;;;10.13;7.10;;;3.40;99.90;;;;;;5010658;28;20968;-56
2023/12/04 12:43:06;;;;;;;9.13;6.90;;;3.50;99.90;;;;;;5014299;28;20222;-55
2023/12/04 12:45:43;;;;;;;8.43;6.93;;;3.50;99.90;;;;;;5011446;28;20272;-52
2023/12/04 12:48:14;;;;;;;7.90;6.40;;;3.50;99.90;;;;;;5011884;28;20228;-53
2023/12/04 12:50:43;;;;;;;10.93;7.13;;;3.50;99.90;;;;;;5011957;28;20217;-56
2023/12/04 12:53:12;;;;;;;12.30;7.20;;;3.50;99.90;;;;;;5011394;28;20733;-55
2023/12/04 12:55:42;;;;;;;9.27;6.53;;;3.50;99.90;;;;;;5009332;28;20214;-56
2023/12/04 12:58:13;;;;;;;8.87;6.73;;;3.40;99.90;;;;;;5011761;28;20589;-54
2023/12/04 13:00:42;;;;;;;7.43;6.63;;;3.50;99.90;;;;;;5010258;28;20582;-56
2023/12/04 13:03:15;;;;;;;9.13;6.53;;;3.40;99.90;;;;;;5011186;28;20328;-55
2023/12/04 13:05:44;;;;;;;11.07;7.43;;;3.40;99.90;;;;;;5010193;28;20636;-55
2023/12/04 13:08:14;;;;;;;9.00;7.10;;;3.40;99.90;;;;;;5007913;28;20228;-54
2023/12/04 13:10:43;;;;;;;12.47;7.97;;;3.40;99.90;;;;;;5012575;28;20287;-54